createdAt,value
2022-09-03T00:01:15.771Z,50.01
2022-09-03T00:03:45.083Z,50.07
2022-09-03T00:06:15.981Z,49.83
2022-09-03T00:08:45.870Z,49.99
2022-09-03T00:11:17.634Z,50.04
2022-09-03T00:13:47.344Z,50.17
2022-09-03T00:16:18.412Z,50.00
2022-09-03T00:18:48.694Z,50.02
2022-09-03T00:21:17.332Z,49.97
2022-09-03T00:23:45.999Z,50.30
2022-09-03T00:26:25.726Z,50.16
2022-09-03T00:28:59.117Z,49.91
2022-09-03T00:31:33.558Z,50.05
2022-09-03T00:34:03.814Z,50.08
2022-09-03T00:36:35.568Z,50.19
2022-09-03T00:39:03.670Z,49.83
2022-09-03T00:41:35.149Z,50.10
2022-09-03T00:44:16.920Z,50.01
2022-09-03T00:46:48.373Z,49.89
2022-09-03T00:49:25.904Z,49.88
2022-09-03T00:51:58.346Z,50.14
2022-09-03T00:54:30.378Z,50.02
2022-09-03T00:57:06.211Z,50.22
2022-09-03T00:59:36.992Z,50.19
2022-09-03T01:02:11.862Z,50.11
2022-09-03T01:04:45.558Z,50.04
2022-09-03T01:07:16.071Z,50.15
2022-09-03T01:09:49.938Z,49.99
2022-09-03T01:12:23.073Z,49.92
2022-09-03T01:14:58.037Z,49.94
2022-09-03T01:17:34.128Z,50.18
2022-09-03T01:20:14.451Z,50.03
2022-09-03T01:22:58.817Z,50.11
2022-09-03T01:25:33.530Z,49.98
2022-09-03T01:28:13.608Z,50.17
2022-09-03T01:30:42.701Z,50.17
2022-09-03T01:33:13.648Z,50.11
2022-09-03T01:35:45.402Z,50.09
2022-09-03T01:38:18.724Z,50.09
2022-09-03T01:40:50.866Z,50.03
2022-09-03T01:43:36.863Z,49.99
2022-09-03T01:46:06.624Z,50.02
2022-09-03T01:48:46.275Z,50.34
2022-09-03T01:51:23.627Z,50.24
2022-09-03T01:54:21.815Z,50.10
2022-09-03T01:57:24.254Z,50.18
2022-09-03T02:00:06.789Z,49.89
2022-09-03T02:02:36.046Z,50.21
2022-09-03T02:05:08.046Z,50.08
2022-09-03T02:07:36.977Z,50.00
2022-09-03T02:10:06.808Z,49.94
2022-09-03T02:12:35.600Z,50.02
2022-09-03T02:15:06.616Z,50.12
2022-09-03T02:17:34.670Z,49.96
2022-09-03T02:20:05.110Z,50.15
2022-09-03T02:22:33.285Z,50.09
2022-09-03T02:25:01.251Z,49.97
2022-09-03T02:27:29.384Z,50.10
2022-09-03T02:29:58.164Z,50.13
2022-09-03T02:32:28.171Z,50.04
2022-09-03T02:34:56.211Z,50.16
2022-09-03T02:37:24.354Z,50.30
2022-09-03T02:39:53.244Z,50.00
2022-09-03T02:42:21.928Z,50.12
2022-09-03T02:44:51.582Z,50.02
2022-09-03T02:47:21.989Z,50.03
2022-09-03T02:49:51.428Z,49.89
2022-09-03T02:52:19.485Z,50.18
2022-09-03T02:54:47.506Z,50.22
2022-09-03T02:57:17.031Z,50.15
2022-09-03T02:59:51.827Z,50.19
2022-09-03T03:02:19.926Z,50.04
2022-09-03T03:04:47.982Z,50.26
2022-09-03T03:07:17.453Z,50.04
2022-09-03T03:09:46.108Z,49.82
2022-09-03T03:12:17.369Z,50.05
2022-09-03T03:14:45.379Z,50.23
2022-09-03T03:17:13.351Z,49.94
2022-09-03T03:19:41.385Z,50.25
2022-09-03T03:22:09.422Z,49.88
2022-09-03T03:24:39.307Z,50.04
2022-09-03T03:27:10.730Z,49.92
2022-09-03T03:29:39.620Z,49.93
2022-09-03T03:32:07.731Z,49.95
2022-09-03T03:34:35.780Z,50.02
2022-09-03T03:37:04.648Z,50.06
2022-09-03T03:39:32.814Z,49.91
2022-09-03T03:42:02.394Z,50.31
2022-09-03T03:44:30.753Z,50.20
2022-09-03T03:46:58.737Z,50.01
2022-09-03T03:49:26.839Z,50.03
2022-09-03T03:51:54.877Z,50.06
2022-09-03T03:54:23.011Z,50.00
2022-09-03T03:56:55.165Z,50.01
2022-09-03T03:59:25.213Z,50.12
2022-09-03T04:01:53.180Z,50.17
2022-09-03T04:04:21.152Z,49.98
2022-09-03T04:06:49.271Z,50.29
2022-09-03T04:09:17.267Z,50.01
2022-09-03T04:11:45.406Z,50.04
2022-09-03T04:14:13.457Z,50.06
2022-09-03T04:16:43.341Z,50.08
2022-09-03T04:19:14.376Z,49.91
2022-09-03T04:21:42.371Z,49.88
2022-09-03T04:24:10.395Z,50.02
2022-09-03T04:26:38.440Z,49.99
2022-09-03T04:29:07.071Z,49.96
2022-09-03T04:31:35.390Z,50.13
2022-09-03T04:34:06.571Z,49.92
2022-09-03T04:36:35.136Z,49.89
2022-09-03T04:39:03.355Z,49.87
2022-09-03T04:41:32.338Z,49.78
2022-09-03T04:44:00.686Z,49.85
2022-09-03T04:46:33.612Z,50.05
2022-09-03T04:49:02.333Z,49.79
2022-09-03T04:51:34.650Z,49.82
2022-09-03T04:54:03.108Z,49.85
2022-09-03T04:56:32.207Z,50.07
2022-09-03T04:59:01.342Z,49.90
2022-09-03T05:01:31.060Z,49.79
2022-09-03T05:03:59.147Z,49.86
2022-09-03T05:06:27.397Z,49.73
2022-09-03T05:08:56.861Z,49.88
2022-09-03T05:11:25.119Z,49.78
2022-09-03T05:13:53.836Z,49.90
2022-09-03T05:16:22.177Z,49.95
2022-09-03T05:18:52.893Z,49.76
2022-09-03T05:21:21.035Z,49.75
2022-09-03T05:23:50.436Z,49.97
2022-09-03T05:26:20.917Z,49.86
2022-09-03T05:28:49.059Z,49.73
2022-09-03T05:31:18.060Z,49.63
2022-09-03T05:33:47.027Z,49.84
2022-09-03T05:36:16.344Z,49.62
2022-09-03T05:38:44.525Z,49.78
2022-09-03T05:41:14.670Z,49.88
2022-09-03T05:43:44.140Z,50.03
2022-09-03T05:46:13.108Z,49.70
2022-09-03T05:48:41.608Z,49.71
2022-09-03T05:51:10.152Z,49.87
2022-09-03T05:53:39.290Z,49.81
2022-09-03T05:56:09.409Z,49.90
2022-09-03T05:58:39.402Z,49.88
2022-09-03T06:01:13.795Z,49.83
2022-09-03T06:03:42.524Z,49.78
2022-09-03T06:06:11.059Z,49.58
2022-09-03T06:08:39.457Z,49.75
2022-09-03T06:11:07.493Z,49.93
2022-09-03T06:13:36.107Z,49.77
2022-09-03T06:16:05.698Z,49.82
2022-09-03T06:18:35.111Z,49.56
2022-09-03T06:21:04.210Z,49.80
2022-09-03T06:23:32.507Z,49.78
2022-09-03T06:26:05.461Z,49.91
2022-09-03T06:28:34.982Z,49.85
2022-09-03T06:31:03.176Z,49.78
2022-09-03T06:33:32.019Z,49.74
2022-09-03T06:36:03.915Z,49.62
2022-09-03T06:38:36.470Z,49.87
2022-09-03T06:41:05.320Z,49.61
2022-09-03T06:43:34.006Z,49.81
2022-09-03T06:46:02.688Z,49.65
2022-09-03T06:48:32.149Z,49.58
2022-09-03T06:51:02.369Z,49.58
2022-09-03T06:53:32.091Z,49.75
2022-09-03T06:56:01.375Z,49.54
2022-09-03T06:58:30.266Z,49.43
2022-09-03T07:01:03.002Z,49.51
2022-09-03T07:03:31.283Z,49.55
2022-09-03T07:06:03.201Z,49.31
2022-09-03T07:08:32.936Z,49.39
2022-09-03T07:11:01.699Z,49.32
2022-09-03T07:13:29.690Z,49.03
2022-09-03T07:16:02.321Z,49.14
2022-09-03T07:18:30.415Z,49.28
2022-09-03T07:21:02.624Z,48.93
2022-09-03T07:23:31.278Z,48.96
2022-09-03T07:26:00.547Z,48.74
2022-09-03T07:28:28.711Z,49.01
2022-09-03T07:30:57.764Z,48.71
2022-09-03T07:33:25.785Z,48.65
2022-09-03T07:35:54.140Z,48.53
2022-09-03T07:38:24.349Z,48.54
2022-09-03T07:40:59.216Z,48.56
2022-09-03T07:43:28.013Z,48.62
2022-09-03T07:45:57.393Z,48.54
2022-09-03T07:48:25.651Z,48.58
2022-09-03T07:50:54.610Z,48.58
2022-09-03T07:53:24.976Z,48.37
2022-09-03T07:55:53.017Z,48.49
2022-09-03T07:58:23.095Z,48.26
2022-09-03T08:00:51.180Z,48.44
2022-09-03T08:03:19.232Z,48.22
2022-09-03T08:05:47.295Z,48.12
2022-09-03T08:08:15.646Z,48.46
2022-09-03T08:10:45.885Z,48.15
2022-09-03T08:13:13.885Z,48.10
2022-09-03T08:15:43.019Z,48.12
2022-09-03T08:18:11.333Z,48.19
2022-09-03T08:20:40.344Z,48.06
2022-09-03T08:23:08.689Z,48.06
2022-09-03T08:25:36.665Z,48.04
2022-09-03T08:28:06.181Z,48.02
2022-09-03T08:30:34.965Z,48.23
2022-09-03T08:33:04.948Z,47.84
2022-09-03T08:35:34.698Z,48.12
2022-09-03T08:38:05.792Z,48.00
2022-09-03T08:40:38.443Z,48.20
2022-09-03T08:43:10.792Z,47.97
2022-09-03T08:45:39.433Z,48.06
2022-09-03T08:48:09.521Z,48.04
2022-09-03T08:50:39.764Z,48.05
2022-09-03T08:53:11.504Z,48.07
2022-09-03T08:55:44.722Z,47.86
2022-09-03T08:58:15.541Z,47.96
2022-09-03T09:00:48.470Z,47.84
2022-09-03T09:03:34.921Z,47.90
2022-09-03T09:06:09.200Z,47.68
2022-09-03T09:08:40.194Z,47.72
2022-09-03T09:11:10.297Z,47.74
2022-09-03T09:13:44.342Z,47.77
2022-09-03T09:16:15.131Z,47.90
2022-09-03T09:18:49.596Z,47.88
2022-09-03T09:21:22.005Z,47.70
2022-09-03T09:23:52.072Z,47.94
2022-09-03T09:26:21.511Z,47.88
2022-09-03T09:28:53.951Z,47.74
2022-09-03T09:31:21.994Z,47.87
2022-09-03T09:33:52.517Z,47.91
2022-09-03T09:36:20.556Z,47.85
2022-09-03T09:38:49.772Z,47.80
2022-09-03T09:41:19.452Z,47.75
2022-09-03T09:43:49.047Z,47.80
2022-09-03T09:46:22.815Z,47.62
2022-09-03T09:48:52.292Z,47.82
2022-09-03T09:51:21.563Z,47.91
2022-09-03T09:53:49.846Z,47.69
2022-09-03T09:56:24.400Z,47.77
2022-09-03T09:58:54.366Z,47.57
2022-09-03T10:01:25.881Z,47.65
2022-09-03T10:03:57.485Z,47.62
2022-09-03T10:06:43.084Z,47.66
2022-09-03T10:09:12.581Z,47.60
2022-09-03T10:11:42.711Z,47.70
2022-09-03T10:14:14.933Z,47.67
2022-09-03T10:16:49.035Z,47.50
2022-09-03T10:19:20.738Z,47.71
2022-09-03T10:21:52.221Z,47.62
2022-09-03T10:24:39.528Z,47.54
2022-09-03T10:27:10.453Z,47.33
2022-09-03T10:29:40.813Z,47.40
2022-09-03T10:32:23.066Z,47.37
2022-09-03T10:34:58.852Z,47.22
2022-09-03T10:37:30.643Z,47.65
2022-09-03T10:40:06.553Z,47.28
2022-09-03T10:42:39.893Z,47.27
2022-09-03T10:45:13.945Z,47.20
2022-09-03T10:48:04.353Z,47.23
2022-09-03T10:50:34.684Z,47.16
2022-09-03T10:53:08.894Z,47.23
2022-09-03T10:55:45.256Z,47.10
2022-09-03T10:58:24.758Z,47.13
2022-09-03T11:00:56.292Z,47.36
2022-09-03T11:03:45.095Z,47.20
2022-09-03T11:06:14.661Z,47.13
2022-09-03T11:08:44.357Z,47.24
2022-09-03T11:11:15.241Z,47.39
2022-09-03T11:13:46.170Z,47.21
2022-09-03T11:16:18.067Z,47.10
2022-09-03T11:18:50.073Z,47.11
2022-09-03T11:21:19.535Z,47.11
2022-09-03T11:23:49.029Z,47.36
2022-09-03T11:26:26.365Z,47.07
2022-09-03T11:28:57.629Z,47.10
2022-09-03T11:31:31.627Z,47.09
2022-09-03T11:34:02.901Z,47.12
2022-09-03T11:36:32.717Z,47.07
2022-09-03T11:39:01.589Z,47.20
2022-09-03T11:41:30.068Z,47.12
2022-09-03T11:44:02.487Z,47.06
2022-09-03T11:46:33.287Z,46.96
2022-09-03T11:49:13.488Z,46.95
2022-09-03T11:51:42.035Z,47.14
2022-09-03T11:54:26.085Z,46.93
2022-09-03T11:57:06.907Z,47.06
2022-09-03T11:59:34.922Z,46.97
2022-09-03T12:02:05.708Z,47.08
2022-09-03T12:04:37.055Z,47.00
2022-09-03T12:07:27.493Z,46.77
2022-09-03T12:10:01.931Z,46.92
2022-09-03T12:12:41.974Z,46.82
2022-09-03T12:15:14.373Z,47.04
2022-09-03T12:17:45.834Z,47.06
2022-09-03T12:20:15.875Z,46.98
2022-09-03T12:22:43.982Z,46.86
2022-09-03T12:25:13.360Z,46.78
2022-09-03T12:27:41.565Z,46.69
2022-09-03T12:30:17.599Z,46.81
2022-09-03T12:32:47.611Z,47.07
2022-09-03T12:38:09.375Z,46.93
2022-09-03T12:43:50.070Z,46.98
2022-09-03T12:46:18.512Z,46.84
2022-09-03T12:51:51.207Z,46.91
2022-09-03T12:54:21.005Z,46.93
2022-09-03T12:56:54.539Z,46.76
2022-09-03T12:59:22.626Z,46.89
2022-09-03T13:01:52.224Z,46.90
2022-09-03T13:04:21.365Z,46.90
2022-09-03T13:06:56.285Z,46.94
2022-09-03T13:09:25.026Z,46.97
2022-09-03T13:11:55.619Z,46.77
2022-09-03T13:14:24.831Z,46.85
2022-09-03T13:17:28.400Z,46.78
2022-09-03T13:20:13.509Z,46.68
2022-09-03T13:22:47.401Z,46.95
2022-09-03T13:25:17.517Z,46.89
2022-09-03T13:27:47.614Z,46.83
2022-09-03T13:30:17.311Z,46.88
2022-09-03T13:32:54.642Z,46.71
2022-09-03T13:35:28.340Z,46.64
2022-09-03T13:38:00.045Z,47.02
2022-09-03T13:40:33.378Z,46.94
2022-09-03T13:43:06.538Z,46.85
2022-09-03T13:45:39.394Z,46.87
2022-09-03T13:48:30.344Z,46.81
2022-09-03T13:51:03.996Z,46.77
2022-09-03T13:53:41.333Z,46.76
2022-09-03T13:56:17.819Z,46.70
2022-09-03T13:58:48.222Z,46.81
2022-09-03T14:01:20.438Z,46.94
2022-09-03T14:03:50.942Z,46.93
2022-09-03T14:06:26.504Z,46.92
2022-09-03T14:09:03.465Z,46.74
2022-09-03T14:11:32.794Z,46.76
2022-09-03T14:14:10.760Z,46.61
2022-09-03T14:16:40.736Z,46.56
2022-09-03T14:19:12.446Z,46.78
2022-09-03T14:21:42.508Z,46.72
2022-09-03T14:24:16.452Z,46.70
2022-09-03T14:26:51.672Z,46.61
2022-09-03T14:29:19.657Z,46.72
2022-09-03T14:32:15.256Z,46.70
2022-09-03T14:34:52.316Z,46.72
2022-09-03T14:37:32.032Z,46.76
2022-09-03T14:40:06.305Z,46.84
2022-09-03T14:42:52.611Z,46.82
2022-09-03T14:45:29.446Z,46.71
2022-09-03T14:48:08.585Z,46.72
2022-09-03T14:50:55.174Z,46.87
2022-09-03T14:53:32.979Z,46.67
2022-09-03T14:56:14.236Z,46.76
2022-09-03T14:58:53.467Z,47.02
2022-09-03T15:01:29.509Z,47.07
2022-09-03T15:04:28.756Z,46.76
2022-09-03T15:07:16.178Z,46.92
2022-09-03T15:09:46.498Z,47.00
2022-09-03T15:12:20.726Z,46.99
2022-09-03T15:14:53.995Z,46.92
2022-09-03T15:17:33.364Z,46.91
2022-09-03T15:20:11.795Z,46.93
2022-09-03T15:22:50.224Z,46.91
2022-09-03T15:25:21.815Z,46.95
2022-09-03T15:27:58.584Z,46.91
2022-09-03T15:30:26.549Z,46.90
2022-09-03T15:33:02.137Z,46.95
2022-09-03T15:35:44.677Z,47.02
2022-09-03T15:38:13.977Z,46.92
2022-09-03T15:40:44.101Z,47.00
2022-09-03T15:43:19.467Z,46.99
2022-09-03T15:45:57.570Z,47.20
2022-09-03T15:48:32.111Z,47.07
2022-09-03T15:51:08.173Z,47.07
2022-09-03T15:53:37.789Z,47.06
2022-09-03T15:56:28.976Z,47.01
2022-09-03T15:59:01.431Z,47.08
2022-09-03T16:01:36.475Z,47.10
2022-09-03T16:04:10.361Z,47.32
2022-09-03T16:06:45.790Z,47.09
2022-09-03T16:09:21.579Z,46.99
2022-09-03T16:11:53.740Z,47.23
2022-09-03T16:14:26.588Z,47.25
2022-09-03T16:16:59.060Z,46.98
2022-09-03T16:19:29.715Z,47.21
2022-09-03T16:22:00.272Z,47.29
2022-09-03T16:24:32.852Z,47.48
2022-09-03T16:27:02.421Z,47.38
2022-09-03T16:29:31.976Z,47.48
2022-09-03T16:32:14.129Z,47.46
2022-09-03T16:34:46.843Z,47.38
2022-09-03T16:37:18.979Z,47.36
2022-09-03T16:39:52.276Z,47.49
2022-09-03T16:42:24.930Z,47.46
2022-09-03T16:45:00.987Z,47.54
2022-09-03T16:47:34.247Z,47.58
2022-09-03T16:50:09.367Z,47.62
2022-09-03T16:52:42.604Z,47.51
2022-09-03T16:55:18.750Z,47.61
2022-09-03T16:57:54.992Z,47.61
2022-09-03T17:00:24.447Z,47.66
2022-09-03T17:03:12.415Z,47.73
2022-09-03T17:06:05.978Z,47.68
2022-09-03T17:08:37.546Z,47.90
2022-09-03T17:11:13.172Z,47.97
2022-09-03T17:13:57.869Z,47.72
2022-09-03T17:16:33.327Z,47.80
2022-09-03T17:19:03.813Z,47.82
2022-09-03T17:21:38.261Z,47.99
2022-09-03T17:24:19.633Z,47.92
2022-09-03T17:26:55.957Z,48.24
2022-09-03T17:29:35.227Z,48.25
2022-09-03T17:32:10.891Z,48.06
2022-09-03T17:34:44.737Z,48.35
2022-09-03T17:37:18.051Z,48.38
2022-09-03T17:40:04.289Z,48.37
2022-09-03T17:42:34.717Z,48.46
2022-09-03T17:45:09.679Z,48.47
2022-09-03T17:48:06.634Z,48.40
2022-09-03T17:50:36.652Z,48.61
2022-09-03T17:53:07.935Z,48.66
2022-09-03T17:55:37.427Z,48.71
2022-09-03T17:58:10.114Z,48.64
2022-09-03T18:00:39.879Z,48.68
2022-09-03T18:03:12.921Z,48.61
2022-09-03T18:05:45.199Z,48.63
2022-09-03T18:08:15.636Z,48.54
2022-09-03T18:10:46.300Z,48.76
2022-09-03T18:13:18.630Z,48.58
2022-09-03T18:15:54.361Z,48.81
2022-09-03T18:18:27.347Z,48.58
2022-09-03T18:21:31.745Z,48.79
2022-09-03T18:24:19.848Z,48.71
2022-09-03T18:27:06.561Z,48.86
2022-09-03T18:29:54.598Z,48.91
2022-09-03T18:32:40.067Z,48.83
2022-09-03T18:35:27.803Z,48.88
2022-09-03T18:38:13.030Z,49.06
2022-09-03T18:41:01.668Z,48.99
2022-09-03T18:43:50.013Z,49.10
2022-09-03T18:49:44.821Z,49.33
2022-09-03T18:52:36.296Z,49.30
2022-09-03T18:55:26.452Z,49.44
2022-09-03T18:58:18.154Z,49.48
2022-09-03T19:01:06.483Z,49.12
2022-09-03T19:03:59.566Z,49.23
2022-09-03T19:06:48.931Z,49.39
2022-09-03T19:09:40.032Z,49.25
2022-09-03T19:12:31.336Z,49.38
2022-09-03T19:15:19.149Z,49.36
2022-09-03T19:18:24.664Z,49.35
2022-09-03T19:21:14.207Z,49.23
2022-09-03T19:23:59.940Z,49.26
2022-09-03T19:26:50.482Z,49.13
2022-09-03T19:29:39.049Z,49.16
2022-09-03T19:32:26.730Z,49.43
2022-09-03T19:35:23.067Z,49.27
2022-09-03T19:38:13.504Z,49.34
2022-09-03T19:41:08.977Z,49.27
2022-09-03T19:43:59.875Z,49.39
2022-09-03T19:46:49.131Z,49.38
2022-09-03T19:49:37.603Z,49.54
2022-09-03T19:52:25.992Z,49.58
2022-09-03T19:55:13.026Z,49.52
2022-09-03T19:57:58.344Z,49.70
2022-09-03T20:00:45.470Z,49.41
2022-09-03T20:03:31.108Z,49.66
2022-09-03T20:06:16.714Z,49.64
2022-09-03T20:09:02.091Z,49.64
2022-09-03T20:11:30.230Z,49.47
2022-09-03T20:14:16.693Z,49.61
2022-09-03T20:17:01.735Z,49.54
2022-09-03T20:19:33.992Z,49.52
2022-09-03T20:22:05.413Z,49.59
2022-09-03T20:24:40.072Z,49.60
2022-09-03T20:27:15.279Z,49.60
2022-09-03T20:29:54.684Z,49.60
2022-09-03T20:32:47.053Z,49.56
2022-09-03T20:35:17.510Z,49.60
2022-09-03T20:37:48.322Z,49.57
2022-09-03T20:40:20.706Z,49.63
2022-09-03T20:43:24.586Z,49.84
2022-09-03T20:45:59.478Z,49.68
2022-09-03T20:48:29.499Z,49.66
2022-09-03T20:51:01.202Z,49.92
2022-09-03T20:53:44.534Z,49.82
2022-09-03T20:56:16.346Z,49.76
2022-09-03T20:58:46.537Z,49.72
2022-09-03T21:01:17.073Z,49.83
2022-09-03T21:03:48.993Z,49.84
2022-09-03T21:06:23.673Z,49.89
2022-09-03T21:09:02.114Z,49.59
2022-09-03T21:11:37.718Z,49.71
2022-09-03T21:14:14.700Z,49.85
2022-09-03T21:16:47.462Z,49.71
2022-09-03T21:19:21.060Z,49.75
2022-09-03T21:21:53.726Z,49.86
2022-09-03T21:24:22.817Z,49.78
2022-09-03T21:27:00.383Z,49.87
2022-09-03T21:29:31.319Z,49.83
2022-09-03T21:32:03.118Z,49.62
2022-09-03T21:34:34.564Z,49.97
2022-09-03T21:37:02.607Z,49.90
2022-09-03T21:39:32.883Z,49.87
2022-09-03T21:42:04.431Z,49.86
2022-09-03T21:44:45.236Z,49.84
2022-09-03T21:47:14.677Z,50.04
2022-09-03T21:49:56.062Z,49.91
2022-09-03T21:52:25.566Z,49.84
2022-09-03T21:54:56.773Z,50.14
2022-09-03T21:57:29.386Z,49.91
2022-09-03T22:00:21.879Z,50.12
2022-09-03T22:02:50.759Z,50.19
2022-09-03T22:05:20.207Z,50.02
2022-09-03T22:08:04.472Z,50.01
2022-09-03T22:10:33.761Z,50.09
2022-09-03T22:13:09.300Z,50.06
2022-09-03T22:15:38.118Z,50.25
2022-09-03T22:18:07.610Z,49.93
2022-09-03T22:20:37.041Z,49.95
2022-09-03T22:23:07.480Z,50.00
2022-09-03T22:25:43.456Z,50.07
2022-09-03T22:28:13.178Z,49.97
2022-09-03T22:30:48.478Z,50.19
2022-09-03T22:33:19.507Z,50.01
2022-09-03T22:36:04.791Z,50.13
2022-09-03T22:38:42.875Z,50.05
2022-09-03T22:41:17.296Z,50.03
2022-09-03T22:43:47.056Z,49.87
2022-09-03T22:46:15.428Z,49.84
2022-09-03T22:49:12.821Z,49.83
2022-09-03T22:51:48.609Z,50.25
2022-09-03T22:54:23.554Z,50.22
2022-09-03T22:56:51.590Z,50.07
2022-09-03T22:59:23.851Z,50.06
2022-09-03T23:01:57.369Z,50.16
2022-09-03T23:04:29.317Z,49.96
2022-09-03T23:07:01.087Z,50.03
2022-09-03T23:09:31.271Z,50.17
2022-09-03T23:12:01.327Z,49.97
2022-09-03T23:14:30.840Z,50.15
2022-09-03T23:16:59.996Z,50.28
2022-09-03T23:19:30.559Z,50.13
2022-09-03T23:22:01.479Z,50.22
2022-09-03T23:24:30.294Z,50.24
2022-09-03T23:26:58.333Z,50.24
2022-09-03T23:29:29.141Z,50.13
2022-09-03T23:31:57.669Z,50.22
2022-09-03T23:34:25.815Z,49.92
2022-09-03T23:37:32.299Z,50.26
2022-09-03T23:40:02.938Z,49.92
2022-09-03T23:42:37.874Z,50.19
2022-09-03T23:45:15.569Z,50.19
2022-09-03T23:47:47.671Z,49.96
2022-09-03T23:50:25.291Z,50.17
2022-09-03T23:53:13.525Z,50.21
2022-09-03T23:55:48.384Z,50.07
2022-09-03T23:58:29.909Z,50.06
